Etusivu
METAR-TAF:

METAR-TAF

Lentoasemat :

In Aménas, Algeria

Leveyspiiri: 28-03N, Pituuspiiri: 009-38E, korkeus merenpinnasta: 562 m

Tämänhetkinen sää

Tämä raportti tehtiin 18 minuuttia sitten, kello 14.00 UTC
Tuuli 8 kn kaakosta
Lämpötila 27°C
Ilmanpaine 1021 hPa
Näkyvyys 10 km tai enemmän
ei pilviä alle 1500 m:ssä eikä cumulonimbus-pilviä

METAR: DAUZ 251400Z 13008KT CAVOK 27/// Q1021

Aika: 15:18 (14:18 UTC)

Sääennuste

Tämä raportti tehtiin 3 tuntia ja 18 minuuttia sitten, kello 11.00 UTC
Ennuste voimassa 25. päivästä klo 12 UTC - 26. päivään klo 12 UTC
Tuuli 8 kn idästä/kaakosta
Näkyvyys 10 km tai enemmän
ei pilviä alle 1500 m:ssä eikä cumulonimbus-pilviä
Tulossa
26. päivästä klo 10 UTC - 26. päivään klo 12 UTC
Tuuli 10 kn lännestä/luoteesta

TAF: DAUZ 251100Z 2512/2612 11008KT CAVOK BECMG 2610/2612 29010KT

Säähavainnot ja -ennusteet yli 4000 lentoasemalta (METAR- ja TAF-raportit).

Käytössä olevat sääasemat on merkitty karttaan keltaisilla ja punaisilla pisteillä.

Aseta hiiri pisteen päälle nähdäksesi sääaseman nimen.

Klikkaa sitten nähdäksesi säähavainnot ja -ennusteet.

Kartan vaihtaminen: klikkaa mustalla rastilla varustettuja vihreitä pisteitä, niin voit zoomata sisään; viivalla varustettua vihreää pistettä, niin voit zoomata ulos tai vihreitä nuolia, niin pääset viereisille kartoille.


METAR-TAF: